sensor_id;sensor_type;location;lat;lon;timestamp;pressure;altitude;pressure_sealevel;temperature;humidity
71907;BME280;59781;52.090;5.030;2023-05-02T00:00:45;102009.91;;;10.71;100.00
71907;BME280;59781;52.090;5.030;2023-05-02T00:03:12;102012.63;;;10.61;100.00
71907;BME280;59781;52.090;5.030;2023-05-02T00:05:38;102014.88;;;10.95;100.00
71907;BME280;59781;52.090;5.030;2023-05-02T00:08:05;102011.50;;;10.83;100.00
71907;BME280;59781;52.090;5.030;2023-05-02T00:10:31;102007.50;;;10.78;100.00
71907;BME280;59781;52.090;5.030;2023-05-02T00:12:56;102014.88;;;10.85;100.00
71907;BME280;59781;52.090;5.030;2023-05-02T00:15:22;101995.56;;;10.90;100.00
71907;BME280;59781;52.090;5.030;2023-05-02T00:17:48;102005.25;;;10.93;100.00
71907;BME280;59781;52.090;5.030;2023-05-02T00:20:13;102006.63;;;10.97;100.00
71907;BME280;59781;52.090;5.030;2023-05-02T00:22:39;102003.66;;;10.90;100.00
71907;BME280;59781;52.090;5.030;2023-05-02T00:25:05;102008.75;;;11.03;100.00
71907;BME280;59781;52.090;5.030;2023-05-02T00:27:32;102007.88;;;11.12;100.00
71907;BME280;59781;52.090;5.030;2023-05-02T00:29:58;102009.84;;;11.10;100.00
71907;BME280;59781;52.090;5.030;2023-05-02T00:32:26;102002.03;;;11.16;100.00
71907;BME280;59781;52.090;5.030;2023-05-02T00:34:52;102009.19;;;10.98;100.00
71907;BME280;59781;52.090;5.030;2023-05-02T00:37:18;102014.31;;;10.91;100.00
71907;BME280;59781;52.090;5.030;2023-05-02T00:39:44;102018.97;;;10.99;100.00
71907;BME280;59781;52.090;5.030;2023-05-02T00:42:10;102022.81;;;10.87;100.00
71907;BME280;59781;52.090;5.030;2023-05-02T00:44:36;102021.97;;;10.96;100.00
71907;BME280;59781;52.090;5.030;2023-05-02T00:47:02;102013.84;;;11.06;100.00
71907;BME280;59781;52.090;5.030;2023-05-02T00:49:28;102015.84;;;11.04;100.00
71907;BME280;59781;52.090;5.030;2023-05-02T00:51:55;102021.97;;;10.96;100.00
71907;BME280;59781;52.090;5.030;2023-05-02T00:54:21;102014.00;;;11.04;100.00
71907;BME280;59781;52.090;5.030;2023-05-02T00:56:46;102024.09;;;11.02;100.00
71907;BME280;59781;52.090;5.030;2023-05-02T00:59:13;102012.94;;;11.25;100.00
71907;BME280;59781;52.090;5.030;2023-05-02T01:02:04;102020.50;;;11.48;100.00
71907;BME280;59781;52.090;5.030;2023-05-02T01:13:32;102043.03;;;11.20;100.00
71907;BME280;59781;52.090;5.030;2023-05-02T01:16:01;102041.66;;;11.06;100.00
71907;BME280;59781;52.090;5.030;2023-05-02T01:18:35;102049.44;;;11.19;100.00
71907;BME280;59781;52.090;5.030;2023-05-02T01:21:09;102046.59;;;11.11;100.00
71907;BME280;59781;52.090;5.030;2023-05-02T01:24:01;102054.88;;;10.80;100.00
71907;BME280;59781;52.090;5.030;2023-05-02T01:27:13;102052.47;;;10.77;100.00
71907;BME280;59781;52.090;5.030;2023-05-02T01:29:49;102054.75;;;10.72;100.00
71907;BME280;59781;52.090;5.030;2023-05-02T01:32:20;102052.47;;;10.68;100.00
71907;BME280;59781;52.090;5.030;2023-05-02T01:34:50;102060.72;;;10.76;100.00
71907;BME280;59781;52.090;5.030;2023-05-02T01:37:21;102068.63;;;10.58;100.00
71907;BME280;59781;52.090;5.030;2023-05-02T01:39:54;102057.88;;;10.77;100.00
71907;BME280;59781;52.090;5.030;2023-05-02T01:42:22;102066.78;;;10.87;100.00
71907;BME280;59781;52.090;5.030;2023-05-02T01:44:54;102066.78;;;10.68;100.00
71907;BME280;59781;52.090;5.030;2023-05-02T01:47:23;102072.47;;;10.55;100.00
71907;BME280;59781;52.090;5.030;2023-05-02T01:49:51;102079.28;;;10.59;100.00
71907;BME280;59781;52.090;5.030;2023-05-02T01:52:21;102076.31;;;10.43;100.00
71907;BME280;59781;52.090;5.030;2023-05-02T01:54:50;102066.38;;;10.73;100.00
71907;BME280;59781;52.090;5.030;2023-05-02T01:57:20;102069.63;;;10.67;100.00
71907;BME280;59781;52.090;5.030;2023-05-02T01:59:48;102076.88;;;10.56;100.00
71907;BME280;59781;52.090;5.030;2023-05-02T02:02:16;102084.09;;;10.66;100.00
71907;BME280;59781;52.090;5.030;2023-05-02T02:04:46;102080.41;;;10.57;100.00
71907;BME280;59781;52.090;5.030;2023-05-02T02:07:13;102082.66;;;10.52;100.00
71907;BME280;59781;52.090;5.030;2023-05-02T02:09:40;102090.75;;;10.32;100.00
71907;BME280;59781;52.090;5.030;2023-05-02T02:12:11;102098.94;;;10.41;100.00
71907;BME280;59781;52.090;5.030;2023-05-02T02:14:47;102104.75;;;10.26;100.00
71907;BME280;59781;52.090;5.030;2023-05-02T02:17:36;102110.47;;;10.43;100.00
71907;BME280;59781;52.090;5.030;2023-05-02T02:20:08;102113.25;;;10.31;100.00
71907;BME280;59781;52.090;5.030;2023-05-02T02:22:38;102113.00;;;10.34;100.00
71907;BME280;59781;52.090;5.030;2023-05-02T02:25:08;102114.72;;;10.45;100.00
71907;BME280;59781;52.090;5.030;2023-05-02T02:27:36;102109.28;;;10.26;100.00
71907;BME280;59781;52.090;5.030;2023-05-02T02:30:03;102109.44;;;10.34;100.00
71907;BME280;59781;52.090;5.030;2023-05-02T02:32:30;102110.97;;;10.27;100.00
71907;BME280;59781;52.090;5.030;2023-05-02T02:34:56;102114.66;;;10.26;100.00
71907;BME280;59781;52.090;5.030;2023-05-02T02:37:30;102116.44;;;10.16;100.00
71907;BME280;59781;52.090;5.030;2023-05-02T02:40:15;102121.84;;;10.16;100.00
71907;BME280;59781;52.090;5.030;2023-05-02T02:43:23;102137.56;;;10.20;100.00
71907;BME280;59781;52.090;5.030;2023-05-02T02:49:20;102132.94;;;10.32;100.00
71907;BME280;59781;52.090;5.030;2023-05-02T02:52:09;102134.25;;;10.38;100.00
71907;BME280;59781;52.090;5.030;2023-05-02T02:54:48;102137.19;;;10.25;100.00
71907;BME280;59781;52.090;5.030;2023-05-02T02:57:32;102144.03;;;10.39;100.00
71907;BME280;59781;52.090;5.030;2023-05-02T03:02:46;102151.00;;;10.11;100.00
71907;BME280;59781;52.090;5.030;2023-05-02T03:05:13;102151.88;;;10.21;100.00
71907;BME280;59781;52.090;5.030;2023-05-02T03:07:40;102152.16;;;10.18;100.00
71907;BME280;59781;52.090;5.030;2023-05-02T03:10:06;102156.53;;;10.19;100.00
71907;BME280;59781;52.090;5.030;2023-05-02T03:12:34;102160.91;;;10.10;100.00
71907;BME280;59781;52.090;5.030;2023-05-02T03:15:23;102164.13;;;10.25;100.00
71907;BME280;59781;52.090;5.030;2023-05-02T03:17:56;102170.06;;;10.28;100.00
71907;BME280;59781;52.090;5.030;2023-05-02T03:20:21;102166.84;;;10.34;100.00
71907;BME280;59781;52.090;5.030;2023-05-02T03:22:48;102170.44;;;10.14;100.00
71907;BME280;59781;52.090;5.030;2023-05-02T03:25:14;102179.28;;;9.95;100.00
71907;BME280;59781;52.090;5.030;2023-05-02T03:27:44;102183.81;;;10.25;100.00
71907;BME280;59781;52.090;5.030;2023-05-02T03:30:11;102187.69;;;10.12;100.00
71907;BME280;59781;52.090;5.030;2023-05-02T03:32:36;102184.94;;;10.02;100.00
71907;BME280;59781;52.090;5.030;2023-05-02T03:35:02;102194.75;;;10.03;100.00
71907;BME280;59781;52.090;5.030;2023-05-02T03:37:34;102185.72;;;10.14;100.00
71907;BME280;59781;52.090;5.030;2023-05-02T03:40:00;102200.56;;;10.08;100.00
71907;BME280;59781;52.090;5.030;2023-05-02T03:42:26;102195.84;;;10.00;100.00
71907;BME280;59781;52.090;5.030;2023-05-02T03:44:52;102201.28;;;10.10;100.00
71907;BME280;59781;52.090;5.030;2023-05-02T03:47:18;102193.91;;;10.12;100.00
71907;BME280;59781;52.090;5.030;2023-05-02T03:49:44;102197.69;;;10.00;100.00
71907;BME280;59781;52.090;5.030;2023-05-02T03:52:11;102199.00;;;10.05;100.00
71907;BME280;59781;52.090;5.030;2023-05-02T03:54:37;102197.81;;;9.98;100.00
71907;BME280;59781;52.090;5.030;2023-05-02T03:57:03;102202.81;;;10.03;100.00
71907;BME280;59781;52.090;5.030;2023-05-02T03:59:33;102198.69;;;9.99;100.00
71907;BME280;59781;52.090;5.030;2023-05-02T04:02:03;102203.06;;;10.00;100.00
71907;BME280;59781;52.090;5.030;2023-05-02T04:04:39;102209.34;;;9.80;100.00
71907;BME280;59781;52.090;5.030;2023-05-02T04:07:06;102211.66;;;10.15;100.00
71907;BME280;59781;52.090;5.030;2023-05-02T04:09:34;102215.13;;;9.75;100.00
71907;BME280;59781;52.090;5.030;2023-05-02T04:12:06;102223.44;;;9.72;100.00
71907;BME280;59781;52.090;5.030;2023-05-02T04:14:33;102217.53;;;9.36;100.00
71907;BME280;59781;52.090;5.030;2023-05-02T04:17:00;102226.13;;;9.51;100.00
71907;BME280;59781;52.090;5.030;2023-05-02T04:19:34;102229.72;;;9.40;100.00
71907;BME280;59781;52.090;5.030;2023-05-02T04:22:01;102232.91;;;9.45;100.00
71907;BME280;59781;52.090;5.030;2023-05-02T04:24:29;102232.16;;;9.43;100.00
71907;BME280;59781;52.090;5.030;2023-05-02T04:26:55;102243.78;;;9.44;100.00
71907;BME280;59781;52.090;5.030;2023-05-02T04:29:21;102244.25;;;9.17;100.00
71907;BME280;59781;52.090;5.030;2023-05-02T04:31:47;102250.94;;;9.23;100.00
71907;BME280;59781;52.090;5.030;2023-05-02T04:34:13;102256.19;;;9.24;100.00
71907;BME280;59781;52.090;5.030;2023-05-02T04:40:27;102256.56;;;9.52;100.00
71907;BME280;59781;52.090;5.030;2023-05-02T04:43:00;102259.59;;;9.58;100.00
71907;BME280;59781;52.090;5.030;2023-05-02T04:45:34;102264.41;;;9.55;100.00
71907;BME280;59781;52.090;5.030;2023-05-02T04:48:03;102272.16;;;9.37;100.00
71907;BME280;59781;52.090;5.030;2023-05-02T04:50:29;102279.78;;;9.53;100.00
71907;BME280;59781;52.090;5.030;2023-05-02T04:52:56;102279.38;;;9.36;100.00
71907;BME280;59781;52.090;5.030;2023-05-02T04:55:22;102279.41;;;9.57;100.00
71907;BME280;59781;52.090;5.030;2023-05-02T04:57:49;102289.09;;;9.48;100.00
71907;BME280;59781;52.090;5.030;2023-05-02T05:00:16;102289.25;;;9.47;100.00
71907;BME280;59781;52.090;5.030;2023-05-02T05:02:42;102293.28;;;9.73;100.00
71907;BME280;59781;52.090;5.030;2023-05-02T05:05:10;102299.69;;;9.82;100.00
71907;BME280;59781;52.090;5.030;2023-05-02T05:07:36;102299.94;;;9.58;100.00
71907;BME280;59781;52.090;5.030;2023-05-02T05:10:02;102305.41;;;9.68;100.00
71907;BME280;59781;52.090;5.030;2023-05-02T05:12:34;102305.22;;;9.81;100.00
71907;BME280;59781;52.090;5.030;2023-05-02T05:15:00;102303.84;;;9.86;100.00
71907;BME280;59781;52.090;5.030;2023-05-02T05:17:27;102308.09;;;9.89;100.00
71907;BME280;59781;52.090;5.030;2023-05-02T05:19:53;102309.69;;;9.91;100.00
71907;BME280;59781;52.090;5.030;2023-05-02T05:22:22;102308.81;;;9.91;100.00
71907;BME280;59781;52.090;5.030;2023-05-02T05:24:55;102305.47;;;9.98;100.00
71907;BME280;59781;52.090;5.030;2023-05-02T05:27:25;102313.56;;;9.98;100.00
71907;BME280;59781;52.090;5.030;2023-05-02T05:29:51;102321.34;;;10.01;100.00
71907;BME280;59781;52.090;5.030;2023-05-02T05:32:17;102311.66;;;9.89;100.00
71907;BME280;59781;52.090;5.030;2023-05-02T05:34:43;102327.78;;;9.68;100.00
71907;BME280;59781;52.090;5.030;2023-05-02T05:37:09;102326.22;;;9.87;100.00
71907;BME280;59781;52.090;5.030;2023-05-02T05:39:35;102332.44;;;9.66;100.00
71907;BME280;59781;52.090;5.030;2023-05-02T05:42:01;102331.53;;;9.45;100.00
71907;BME280;59781;52.090;5.030;2023-05-02T05:44:28;102343.03;;;9.47;100.00
71907;BME280;59781;52.090;5.030;2023-05-02T05:46:54;102343.56;;;9.30;100.00
71907;BME280;59781;52.090;5.030;2023-05-02T05:49:23;102351.53;;;9.52;100.00
71907;BME280;59781;52.090;5.030;2023-05-02T05:51:49;102354.09;;;9.54;100.00
71907;BME280;59781;52.090;5.030;2023-05-02T05:54:17;102355.63;;;9.46;100.00
71907;BME280;59781;52.090;5.030;2023-05-02T05:56:43;102357.88;;;9.62;100.00
71907;BME280;59781;52.090;5.030;2023-05-02T05:59:13;102369.19;;;9.77;100.00
71907;BME280;59781;52.090;5.030;2023-05-02T06:01:40;102375.50;;;9.87;100.00
71907;BME280;59781;52.090;5.030;2023-05-02T06:04:06;102379.66;;;9.91;100.00
71907;BME280;59781;52.090;5.030;2023-05-02T06:06:35;102375.00;;;9.93;100.00
71907;BME280;59781;52.090;5.030;2023-05-02T06:09:02;102384.81;;;10.15;100.00
71907;BME280;59781;52.090;5.030;2023-05-02T06:11:29;102392.13;;;9.92;100.00
71907;BME280;59781;52.090;5.030;2023-05-02T06:13:55;102391.31;;;9.81;100.00
71907;BME280;59781;52.090;5.030;2023-05-02T06:16:21;102400.00;;;9.73;100.00
71907;BME280;59781;52.090;5.030;2023-05-02T06:18:49;102398.41;;;9.82;100.00
71907;BME280;59781;52.090;5.030;2023-05-02T06:21:17;102401.50;;;9.77;100.00
71907;BME280;59781;52.090;5.030;2023-05-02T06:23:43;102397.78;;;10.10;100.00
71907;BME280;59781;52.090;5.030;2023-05-02T06:26:08;102408.91;;;10.17;100.00
71907;BME280;59781;52.090;5.030;2023-05-02T06:28:34;102411.56;;;10.28;100.00
71907;BME280;59781;52.090;5.030;2023-05-02T06:31:02;102407.94;;;10.39;100.00
71907;BME280;59781;52.090;5.030;2023-05-02T06:33:30;102404.84;;;10.22;100.00
71907;BME280;59781;52.090;5.030;2023-05-02T06:35:58;102404.41;;;10.38;100.00
71907;BME280;59781;52.090;5.030;2023-05-02T06:38:24;102417.94;;;10.48;100.00
71907;BME280;59781;52.090;5.030;2023-05-02T06:40:50;102418.50;;;10.51;100.00
71907;BME280;59781;52.090;5.030;2023-05-02T06:43:17;102432.47;;;10.56;100.00
71907;BME280;59781;52.090;5.030;2023-05-02T06:45:43;102437.44;;;10.61;100.00
71907;BME280;59781;52.090;5.030;2023-05-02T06:48:09;102434.59;;;10.42;100.00
71907;BME280;59781;52.090;5.030;2023-05-02T06:50:36;102450.06;;;10.40;100.00
71907;BME280;59781;52.090;5.030;2023-05-02T06:53:03;102452.16;;;10.36;100.00
71907;BME280;59781;52.090;5.030;2023-05-02T06:55:30;102463.94;;;10.35;100.00
71907;BME280;59781;52.090;5.030;2023-05-02T06:57:56;102461.03;;;10.27;100.00
71907;BME280;59781;52.090;5.030;2023-05-02T07:00:22;102464.50;;;10.39;100.00
71907;BME280;59781;52.090;5.030;2023-05-02T07:02:48;102466.41;;;10.27;100.00
71907;BME280;59781;52.090;5.030;2023-05-02T07:05:14;102470.28;;;10.34;100.00
71907;BME280;59781;52.090;5.030;2023-05-02T07:07:41;102476.66;;;10.33;100.00
71907;BME280;59781;52.090;5.030;2023-05-02T07:10:08;102489.00;;;10.36;100.00
71907;BME280;59781;52.090;5.030;2023-05-02T07:12:35;102488.38;;;10.00;100.00
71907;BME280;59781;52.090;5.030;2023-05-02T07:15:03;102492.38;;;10.17;100.00
71907;BME280;59781;52.090;5.030;2023-05-02T07:17:31;102497.06;;;10.03;100.00
71907;BME280;59781;52.090;5.030;2023-05-02T07:19:57;102496.03;;;10.16;100.00
71907;BME280;59781;52.090;5.030;2023-05-02T07:22:23;102491.44;;;10.39;100.00
71907;BME280;59781;52.090;5.030;2023-05-02T07:24:56;102493.63;;;10.45;100.00
71907;BME280;59781;52.090;5.030;2023-05-02T07:27:23;102496.41;;;10.75;100.00
71907;BME280;59781;52.090;5.030;2023-05-02T07:29:49;102501.31;;;10.70;100.00
71907;BME280;59781;52.090;5.030;2023-05-02T07:32:14;102508.88;;;10.76;100.00
71907;BME280;59781;52.090;5.030;2023-05-02T07:34:40;102501.81;;;11.06;100.00
71907;BME280;59781;52.090;5.030;2023-05-02T10:28:26;102621.84;;;14.95;59.20
71907;BME280;59781;52.090;5.030;2023-05-02T10:30:53;102633.00;;;14.74;63.59
71907;BME280;59781;52.090;5.030;2023-05-02T10:33:21;102631.03;;;15.98;58.67
71907;BME280;59781;52.090;5.030;2023-05-02T10:35:47;102628.91;;;17.09;56.69
71907;BME280;59781;52.090;5.030;2023-05-02T10:38:23;102638.94;;;16.76;51.86
71907;BME280;59781;52.090;5.030;2023-05-02T10:40:54;102639.34;;;15.18;57.11
71907;BME280;59781;52.090;5.030;2023-05-02T10:43:25;102632.84;;;15.89;55.43
71907;BME280;59781;52.090;5.030;2023-05-02T10:45:53;102643.97;;;15.52;51.93
71907;BME280;59781;52.090;5.030;2023-05-02T10:48:26;102643.75;;;14.48;55.26
71907;BME280;59781;52.090;5.030;2023-05-02T10:50:54;102646.19;;;16.09;54.78
71907;BME280;59781;52.090;5.030;2023-05-02T10:56:15;102650.19;;;15.88;53.80
71907;BME280;59781;52.090;5.030;2023-05-02T10:58:44;102647.22;;;15.30;54.14
71907;BME280;59781;52.090;5.030;2023-05-02T11:04:01;102644.47;;;15.47;51.92
71907;BME280;59781;52.090;5.030;2023-05-02T11:06:31;102649.56;;;15.25;57.62
71907;BME280;59781;52.090;5.030;2023-05-02T11:11:47;102642.09;;;16.55;52.72
71907;BME280;59781;52.090;5.030;2023-05-02T11:24:55;102675.03;;;15.06;53.05
71907;BME280;59781;52.090;5.030;2023-05-02T11:29:59;102663.03;;;16.12;53.73
71907;BME280;59781;52.090;5.030;2023-05-02T11:35:24;102660.56;;;17.42;49.03
71907;BME280;59781;52.090;5.030;2023-05-02T11:37:59;102662.59;;;15.21;50.87
71907;BME280;59781;52.090;5.030;2023-05-02T11:40:30;102651.34;;;16.20;49.89
71907;BME280;59781;52.090;5.030;2023-05-02T11:42:58;102661.59;;;17.25;49.80
71907;BME280;59781;52.090;5.030;2023-05-02T11:45:32;102662.09;;;17.04;50.68
71907;BME280;59781;52.090;5.030;2023-05-02T11:48:03;102661.09;;;17.05;49.09
71907;BME280;59781;52.090;5.030;2023-05-02T11:50:29;102662.81;;;14.29;52.58
71907;BME280;59781;52.090;5.030;2023-05-02T11:52:55;102664.63;;;15.63;54.70
71907;BME280;59781;52.090;5.030;2023-05-02T11:55:21;102679.09;;;15.28;52.31
71907;BME280;59781;52.090;5.030;2023-05-02T11:57:47;102670.69;;;16.67;52.04
71907;BME280;59781;52.090;5.030;2023-05-02T12:00:13;102673.16;;;17.27;46.53
71907;BME280;59781;52.090;5.030;2023-05-02T12:02:42;102679.44;;;16.37;46.98
71907;BME280;59781;52.090;5.030;2023-05-02T12:05:11;102674.88;;;17.28;48.05
71907;BME280;59781;52.090;5.030;2023-05-02T12:07:45;102677.25;;;18.89;45.21
71907;BME280;59781;52.090;5.030;2023-05-02T12:10:13;102693.56;;;17.64;50.14
71907;BME280;59781;52.090;5.030;2023-05-02T12:12:42;102687.13;;;17.24;49.84
71907;BME280;59781;52.090;5.030;2023-05-02T12:15:10;102683.84;;;17.77;47.84
71907;BME280;59781;52.090;5.030;2023-05-02T12:17:42;102675.81;;;17.92;45.60
71907;BME280;59781;52.090;5.030;2023-05-02T12:20:13;102679.44;;;18.71;49.46
71907;BME280;59781;52.090;5.030;2023-05-02T12:22:40;102677.84;;;18.77;46.14
71907;BME280;59781;52.090;5.030;2023-05-02T12:25:07;102686.09;;;19.14;44.03
71907;BME280;59781;52.090;5.030;2023-05-02T12:27:33;102700.69;;;18.45;45.51
71907;BME280;59781;52.090;5.030;2023-05-02T12:29:59;102693.59;;;18.67;43.46
71907;BME280;59781;52.090;5.030;2023-05-02T12:32:30;102690.63;;;17.98;42.57
71907;BME280;59781;52.090;5.030;2023-05-02T12:34:59;102702.56;;;17.97;46.71
71907;BME280;59781;52.090;5.030;2023-05-02T12:37:27;102710.50;;;18.15;44.45
71907;BME280;59781;52.090;5.030;2023-05-02T12:39:53;102709.06;;;17.39;44.19
71907;BME280;59781;52.090;5.030;2023-05-02T12:42:22;102714.69;;;17.37;46.64
71907;BME280;59781;52.090;5.030;2023-05-02T12:44:50;102733.28;;;15.55;47.03
71907;BME280;59781;52.090;5.030;2023-05-02T12:47:18;102718.84;;;15.98;47.21
71907;BME280;59781;52.090;5.030;2023-05-02T12:52:28;102716.91;;;16.59;47.71
71907;BME280;59781;52.090;5.030;2023-05-02T12:55:21;102714.69;;;17.62;46.03
71907;BME280;59781;52.090;5.030;2023-05-02T12:57:49;102722.28;;;14.68;49.19
71907;BME280;59781;52.090;5.030;2023-05-02T13:00:23;102707.28;;;16.22;46.98
71907;BME280;59781;52.090;5.030;2023-05-02T13:02:52;102709.75;;;17.49;47.69
71907;BME280;59781;52.090;5.030;2023-05-02T13:05:19;102713.63;;;18.03;47.32
71907;BME280;59781;52.090;5.030;2023-05-02T13:07:45;102714.66;;;16.46;45.78
71907;BME280;59781;52.090;5.030;2023-05-02T13:10:11;102721.16;;;17.20;47.86
71907;BME280;59781;52.090;5.030;2023-05-02T13:12:38;102718.97;;;17.81;46.50
71907;BME280;59781;52.090;5.030;2023-05-02T13:15:05;102708.22;;;17.46;45.85
71907;BME280;59781;52.090;5.030;2023-05-02T13:17:35;102719.63;;;17.50;46.09
71907;BME280;59781;52.090;5.030;2023-05-02T13:20:01;102725.75;;;17.36;44.48
71907;BME280;59781;52.090;5.030;2023-05-02T13:22:27;102724.91;;;17.35;46.44
71907;BME280;59781;52.090;5.030;2023-05-02T13:24:53;102722.69;;;17.23;45.65
71907;BME280;59781;52.090;5.030;2023-05-02T13:27:22;102723.53;;;17.07;45.84
71907;BME280;59781;52.090;5.030;2023-05-02T13:29:48;102721.84;;;17.46;45.93
71907;BME280;59781;52.090;5.030;2023-05-02T13:32:14;102732.38;;;17.49;47.73
71907;BME280;59781;52.090;5.030;2023-05-02T13:34:41;102721.88;;;16.63;45.40
71907;BME280;59781;52.090;5.030;2023-05-02T13:37:07;102732.06;;;17.44;46.92
71907;BME280;59781;52.090;5.030;2023-05-02T13:39:33;102736.34;;;17.31;48.57
71907;BME280;59781;52.090;5.030;2023-05-02T13:41:59;102733.94;;;17.44;44.16
71907;BME280;59781;52.090;5.030;2023-05-02T13:44:31;102747.16;;;16.22;47.88
71907;BME280;59781;52.090;5.030;2023-05-02T13:46:57;102739.28;;;16.37;47.24
71907;BME280;59781;52.090;5.030;2023-05-02T13:49:23;102740.91;;;17.55;46.35
71907;BME280;59781;52.090;5.030;2023-05-02T13:51:49;102742.13;;;17.52;50.41
71907;BME280;59781;52.090;5.030;2023-05-02T13:54:15;102737.88;;;17.41;45.79
71907;BME280;59781;52.090;5.030;2023-05-02T13:56:41;102739.22;;;17.37;45.37
71907;BME280;59781;52.090;5.030;2023-05-02T13:59:07;102736.16;;;17.57;47.46
71907;BME280;59781;52.090;5.030;2023-05-02T14:01:33;102739.56;;;17.51;49.00
71907;BME280;59781;52.090;5.030;2023-05-02T14:03:59;102753.19;;;17.83;46.06
71907;BME280;59781;52.090;5.030;2023-05-02T14:06:31;102747.88;;;15.72;48.29
71907;BME280;59781;52.090;5.030;2023-05-02T14:08:57;102738.50;;;16.52;48.62
71907;BME280;59781;52.090;5.030;2023-05-02T14:11:23;102744.81;;;17.03;46.12
71907;BME280;59781;52.090;5.030;2023-05-02T14:13:48;102737.75;;;16.76;48.55
71907;BME280;59781;52.090;5.030;2023-05-02T14:16:14;102742.69;;;16.73;46.60
71907;BME280;59781;52.090;5.030;2023-05-02T14:18:40;102749.22;;;15.68;47.69
71907;BME280;59781;52.090;5.030;2023-05-02T14:21:06;102738.47;;;16.44;47.77
71907;BME280;59781;52.090;5.030;2023-05-02T14:23:31;102738.94;;;16.05;49.02
71907;BME280;59781;52.090;5.030;2023-05-02T14:25:57;102741.56;;;16.57;49.42
71907;BME280;59781;52.090;5.030;2023-05-02T14:28:23;102744.28;;;16.91;47.82
71907;BME280;59781;52.090;5.030;2023-05-02T14:30:49;102744.81;;;17.11;48.07
71907;BME280;59781;52.090;5.030;2023-05-02T14:33:16;102750.56;;;16.58;46.67
71907;BME280;59781;52.090;5.030;2023-05-02T14:35:41;102753.97;;;16.18;48.41
71907;BME280;59781;52.090;5.030;2023-05-02T14:38:07;102754.25;;;15.27;49.33
71907;BME280;59781;52.090;5.030;2023-05-02T14:40:33;102745.78;;;16.44;49.59
71907;BME280;59781;52.090;5.030;2023-05-02T14:42:59;102749.59;;;17.26;48.06
71907;BME280;59781;52.090;5.030;2023-05-02T14:45:25;102753.16;;;16.68;48.04
71907;BME280;59781;52.090;5.030;2023-05-02T14:47:51;102752.28;;;15.73;48.99
71907;BME280;59781;52.090;5.030;2023-05-02T14:50:17;102747.16;;;16.14;51.43
71907;BME280;59781;52.090;5.030;2023-05-02T14:52:42;102748.06;;;16.22;49.65
71907;BME280;59781;52.090;5.030;2023-05-02T14:55:11;102747.06;;;15.18;52.97
71907;BME280;59781;52.090;5.030;2023-05-02T14:57:36;102737.25;;;15.43;51.23
71907;BME280;59781;52.090;5.030;2023-05-02T15:00:04;102743.44;;;15.71;51.40
71907;BME280;59781;52.090;5.030;2023-05-02T15:02:34;102742.88;;;16.11;50.13
71907;BME280;59781;52.090;5.030;2023-05-02T15:05:00;102737.53;;;16.01;49.58
71907;BME280;59781;52.090;5.030;2023-05-02T15:07:26;102746.66;;;15.66;48.97
71907;BME280;59781;52.090;5.030;2023-05-02T15:09:53;102746.28;;;15.26;51.10
71907;BME280;59781;52.090;5.030;2023-05-02T15:12:18;102746.75;;;14.11;52.81
71907;BME280;59781;52.090;5.030;2023-05-02T15:14:44;102744.00;;;15.03;51.49
71907;BME280;59781;52.090;5.030;2023-05-02T15:17:10;102753.38;;;14.63;52.73
71907;BME280;59781;52.090;5.030;2023-05-02T15:19:35;102747.59;;;15.39;51.27
71907;BME280;59781;52.090;5.030;2023-05-02T15:22:01;102747.50;;;14.96;52.54
71907;BME280;59781;52.090;5.030;2023-05-02T15:24:27;102750.34;;;14.49;53.73
71907;BME280;59781;52.090;5.030;2023-05-02T15:26:52;102749.69;;;15.28;53.02
71907;BME280;59781;52.090;5.030;2023-05-02T15:29:18;102746.91;;;14.74;54.25
71907;BME280;59781;52.090;5.030;2023-05-02T15:31:44;102750.28;;;15.04;52.45
71907;BME280;59781;52.090;5.030;2023-05-02T15:34:10;102747.31;;;14.15;54.02
71907;BME280;59781;52.090;5.030;2023-05-02T15:36:35;102748.91;;;14.07;56.23
71907;BME280;59781;52.090;5.030;2023-05-02T15:39:05;102748.03;;;14.54;55.00
71907;BME280;59781;52.090;5.030;2023-05-02T15:41:31;102759.50;;;14.75;54.70
71907;BME280;59781;52.090;5.030;2023-05-02T15:43:57;102756.09;;;14.36;54.06
71907;BME280;59781;52.090;5.030;2023-05-02T15:46:24;102745.59;;;14.14;54.36
71907;BME280;59781;52.090;5.030;2023-05-02T15:48:50;102748.22;;;13.96;60.40
71907;BME280;59781;52.090;5.030;2023-05-02T15:51:17;102755.34;;;14.06;55.43
71907;BME280;59781;52.090;5.030;2023-05-02T15:53:43;102763.97;;;13.63;54.58
71907;BME280;59781;52.090;5.030;2023-05-02T15:56:12;102757.41;;;13.37;56.03
71907;BME280;59781;52.090;5.030;2023-05-02T15:58:39;102762.97;;;13.55;57.32
71907;BME280;59781;52.090;5.030;2023-05-02T16:01:05;102768.53;;;13.53;58.24
71907;BME280;59781;52.090;5.030;2023-05-02T16:03:32;102783.91;;;13.33;58.22
71907;BME280;59781;52.090;5.030;2023-05-02T16:05:58;102779.94;;;13.28;56.75
71907;BME280;59781;52.090;5.030;2023-05-02T16:08:26;102780.66;;;13.49;57.69
71907;BME280;59781;52.090;5.030;2023-05-02T16:10:52;102773.38;;;13.69;55.29
71907;BME280;59781;52.090;5.030;2023-05-02T16:13:19;102778.94;;;13.77;56.72
71907;BME280;59781;52.090;5.030;2023-05-02T16:15:45;102781.63;;;13.77;55.76
71907;BME280;59781;52.090;5.030;2023-05-02T16:18:16;102781.22;;;13.62;56.26
71907;BME280;59781;52.090;5.030;2023-05-02T16:20:43;102772.09;;;13.63;55.71
71907;BME280;59781;52.090;5.030;2023-05-02T16:23:08;102774.19;;;13.11;57.37
71907;BME280;59781;52.090;5.030;2023-05-02T16:25:34;102769.88;;;12.89;59.74
71907;BME280;59781;52.090;5.030;2023-05-02T16:28:00;102767.47;;;12.96;58.71